Terminal Aerodrome Forecast
Issued by NWS Sioux Falls, SD

Home | Current Version | Previous Version | Text Only | Print | Product List | Glossary On
Versions: 1 2 3 4 5 6 7 8 9 10 11 12 13 14 15
354
FTUS43 KFSD 241133
TAFFSD
TAF
KFSD 241133Z 2412/2512 04005KT P6SM BKN080
     FM241700 04012G22KT P6SM VCSH OVC060
     FM242300 01011KT P6SM VCSH OVC050
     FM250100 01007KT P6SM SCT050 BKN080=

USA.gov is the U.S. government's official web portal to all federal, state and local government web resources and services.